sensor_id;sensor_type;location;lat;lon;timestamp;pressure;altitude;pressure_sealevel;temperature;humidity
44988;BME280;35735;52.226;21.254;2023-02-16T00:00:48;101285.97;;;0.05;100.00
44988;BME280;35735;52.226;21.254;2023-02-16T00:05:49;101272.44;;;0.01;100.00
44988;BME280;35735;52.226;21.254;2023-02-16T00:10:50;101263.31;;;-0.05;100.00
44988;BME280;35735;52.226;21.254;2023-02-16T00:15:50;101252.69;;;-0.05;100.00
44988;BME280;35735;52.226;21.254;2023-02-16T00:20:51;101252.09;;;0.01;100.00
44988;BME280;35735;52.226;21.254;2023-02-16T00:25:51;101244.59;;;0.09;100.00
44988;BME280;35735;52.226;21.254;2023-02-16T00:30:52;101236.03;;;0.14;100.00
44988;BME280;35735;52.226;21.254;2023-02-16T00:35:52;101223.09;;;0.21;100.00
44988;BME280;35735;52.226;21.254;2023-02-16T00:40:53;101212.97;;;0.30;100.00
44988;BME280;35735;52.226;21.254;2023-02-16T00:45:54;101212.47;;;0.37;100.00
44988;BME280;35735;52.226;21.254;2023-02-16T00:50:55;101202.25;;;0.45;100.00
44988;BME280;35735;52.226;21.254;2023-02-16T00:55:56;101195.50;;;0.51;100.00
44988;BME280;35735;52.226;21.254;2023-02-16T01:01:02;101179.91;;;0.58;100.00
44988;BME280;35735;52.226;21.254;2023-02-16T01:06:06;101186.03;;;0.57;100.00
44988;BME280;35735;52.226;21.254;2023-02-16T01:11:07;101175.56;;;0.60;100.00
44988;BME280;35735;52.226;21.254;2023-02-16T01:16:16;101176.34;;;0.57;100.00
44988;BME280;35735;52.226;21.254;2023-02-16T01:21:19;101171.31;;;0.45;100.00
44988;BME280;35735;52.226;21.254;2023-02-16T01:26:20;101167.16;;;0.34;100.00
44988;BME280;35735;52.226;21.254;2023-02-16T01:31:21;101168.31;;;0.23;100.00
44988;BME280;35735;52.226;21.254;2023-02-16T01:36:24;101164.34;;;0.14;100.00
44988;BME280;35735;52.226;21.254;2023-02-16T01:47:36;101159.28;;;0.03;100.00
44988;BME280;35735;52.226;21.254;2023-02-16T01:52:53;101156.19;;;-0.05;100.00
44988;BME280;35735;52.226;21.254;2023-02-16T01:58:00;101146.75;;;-0.16;100.00
44988;BME280;35735;52.226;21.254;2023-02-16T02:03:16;101140.75;;;-0.29;100.00
44988;BME280;35735;52.226;21.254;2023-02-16T02:18:43;101134.19;;;-0.52;100.00
44988;BME280;35735;52.226;21.254;2023-02-16T02:29:51;101124.81;;;-0.62;100.00
44988;BME280;35735;52.226;21.254;2023-02-16T02:45:51;101100.78;;;-0.65;100.00
44988;BME280;35735;52.226;21.254;2023-02-16T02:51:07;101102.50;;;-0.65;100.00
44988;BME280;35735;52.226;21.254;2023-02-16T02:56:11;101102.91;;;-0.74;100.00
44988;BME280;35735;52.226;21.254;2023-02-16T03:01:17;101090.84;;;-0.84;100.00
44988;BME280;35735;52.226;21.254;2023-02-16T03:06:31;101098.22;;;-0.95;100.00
44988;BME280;35735;52.226;21.254;2023-02-16T03:11:34;101086.16;;;-1.04;100.00
44988;BME280;35735;52.226;21.254;2023-02-16T03:16:38;101078.31;;;-1.03;100.00
44988;BME280;35735;52.226;21.254;2023-02-16T03:21:42;101069.56;;;-1.02;100.00
44988;BME280;35735;52.226;21.254;2023-02-16T03:26:43;101062.78;;;-0.97;100.00
44988;BME280;35735;52.226;21.254;2023-02-16T03:31:44;101056.16;;;-0.88;100.00
44988;BME280;35735;52.226;21.254;2023-02-16T03:36:48;101043.72;;;-0.89;100.00
44988;BME280;35735;52.226;21.254;2023-02-16T03:41:52;101043.37;;;-0.96;100.00
44988;BME280;35735;52.226;21.254;2023-02-16T03:46:54;101045.53;;;-1.05;100.00
44988;BME280;35735;52.226;21.254;2023-02-16T03:51:54;101041.78;;;-1.08;100.00
44988;BME280;35735;52.226;21.254;2023-02-16T03:56:55;101029.75;;;-1.18;100.00
44988;BME280;35735;52.226;21.254;2023-02-16T04:01:55;101027.56;;;-1.25;100.00
44988;BME280;35735;52.226;21.254;2023-02-16T04:06:56;101015.34;;;-1.23;100.00
44988;BME280;35735;52.226;21.254;2023-02-16T04:11:57;101009.00;;;-1.25;100.00
44988;BME280;35735;52.226;21.254;2023-02-16T04:16:57;101004.91;;;-1.20;100.00
44988;BME280;35735;52.226;21.254;2023-02-16T04:21:58;100998.69;;;-1.21;100.00
44988;BME280;35735;52.226;21.254;2023-02-16T04:26:58;100999.25;;;-1.26;100.00
44988;BME280;35735;52.226;21.254;2023-02-16T04:31:59;100999.75;;;-1.17;100.00
44988;BME280;35735;52.226;21.254;2023-02-16T04:36:59;100996.13;;;-1.19;100.00
44988;BME280;35735;52.226;21.254;2023-02-16T04:42:00;100989.56;;;-1.26;100.00
44988;BME280;35735;52.226;21.254;2023-02-16T04:47:00;100985.75;;;-1.31;100.00
44988;BME280;35735;52.226;21.254;2023-02-16T04:52:01;100984.84;;;-1.32;100.00
44988;BME280;35735;52.226;21.254;2023-02-16T04:57:03;100979.00;;;-1.41;100.00
44988;BME280;35735;52.226;21.254;2023-02-16T05:02:04;100972.81;;;-1.41;100.00
44988;BME280;35735;52.226;21.254;2023-02-16T05:07:04;100993.88;;;-1.28;100.00
44988;BME280;35735;52.226;21.254;2023-02-16T05:12:05;100983.16;;;-1.15;100.00
44988;BME280;35735;52.226;21.254;2023-02-16T05:22:17;100976.66;;;-0.88;100.00
44988;BME280;35735;52.226;21.254;2023-02-16T05:27:20;100983.19;;;-0.82;100.00
44988;BME280;35735;52.226;21.254;2023-02-16T05:32:22;100971.84;;;-0.79;100.00
44988;BME280;35735;52.226;21.254;2023-02-16T05:37:23;100957.94;;;-0.75;100.00
44988;BME280;35735;52.226;21.254;2023-02-16T05:42:24;100969.88;;;-0.67;100.00
44988;BME280;35735;52.226;21.254;2023-02-16T05:47:24;100974.66;;;-0.60;100.00
44988;BME280;35735;52.226;21.254;2023-02-16T05:52:25;100972.25;;;-0.55;100.00
44988;BME280;35735;52.226;21.254;2023-02-16T05:57:25;100971.50;;;-0.52;100.00
44988;BME280;35735;52.226;21.254;2023-02-16T06:02:26;100972.00;;;-0.43;100.00
44988;BME280;35735;52.226;21.254;2023-02-16T06:07:26;100963.38;;;-0.39;100.00
44988;BME280;35735;52.226;21.254;2023-02-16T06:12:27;100963.53;;;-0.36;100.00
44988;BME280;35735;52.226;21.254;2023-02-16T06:17:28;100955.41;;;-0.39;100.00
44988;BME280;35735;52.226;21.254;2023-02-16T06:22:28;100947.44;;;-0.39;100.00
44988;BME280;35735;52.226;21.254;2023-02-16T06:27:29;100941.00;;;-0.44;100.00
44988;BME280;35735;52.226;21.254;2023-02-16T06:32:29;100955.16;;;-0.44;100.00
44988;BME280;35735;52.226;21.254;2023-02-16T06:37:30;100956.09;;;-0.43;100.00
44988;BME280;35735;52.226;21.254;2023-02-16T06:42:30;100954.59;;;-0.38;100.00
44988;BME280;35735;52.226;21.254;2023-02-16T06:47:31;100949.75;;;-0.29;100.00
44988;BME280;35735;52.226;21.254;2023-02-16T06:52:31;100949.34;;;-0.20;100.00
44988;BME280;35735;52.226;21.254;2023-02-16T06:57:32;100947.91;;;-0.13;100.00
44988;BME280;35735;52.226;21.254;2023-02-16T07:02:33;100941.22;;;-0.05;100.00
44988;BME280;35735;52.226;21.254;2023-02-16T07:07:33;100949.91;;;0.09;100.00
44988;BME280;35735;52.226;21.254;2023-02-16T07:12:34;100935.41;;;0.20;100.00
44988;BME280;35735;52.226;21.254;2023-02-16T07:17:34;100938.47;;;0.28;100.00
44988;BME280;35735;52.226;21.254;2023-02-16T07:22:35;100929.28;;;0.39;100.00
44988;BME280;35735;52.226;21.254;2023-02-16T07:27:35;100933.59;;;0.55;100.00
44988;BME280;35735;52.226;21.254;2023-02-16T07:32:36;100928.25;;;0.73;100.00
44988;BME280;35735;52.226;21.254;2023-02-16T07:37:37;100926.22;;;0.87;100.00
44988;BME280;35735;52.226;21.254;2023-02-16T07:42:37;100920.47;;;0.96;100.00
44988;BME280;35735;52.226;21.254;2023-02-16T07:47:38;100922.16;;;1.13;100.00
44988;BME280;35735;52.226;21.254;2023-02-16T07:52:38;100916.69;;;1.29;100.00
44988;BME280;35735;52.226;21.254;2023-02-16T07:57:39;100910.63;;;1.32;100.00
44988;BME280;35735;52.226;21.254;2023-02-16T08:02:39;100912.56;;;1.36;100.00
44988;BME280;35735;52.226;21.254;2023-02-16T08:07:40;100907.53;;;1.42;100.00
44988;BME280;35735;52.226;21.254;2023-02-16T08:12:41;100898.06;;;1.49;100.00
44988;BME280;35735;52.226;21.254;2023-02-16T08:17:41;100898.59;;;1.61;100.00
44988;BME280;35735;52.226;21.254;2023-02-16T08:22:42;100893.09;;;1.78;100.00
44988;BME280;35735;52.226;21.254;2023-02-16T08:27:42;100892.91;;;1.94;100.00
44988;BME280;35735;52.226;21.254;2023-02-16T08:32:43;100895.25;;;2.08;100.00
44988;BME280;35735;52.226;21.254;2023-02-16T08:37:44;100891.84;;;2.33;100.00
44988;BME280;35735;52.226;21.254;2023-02-16T08:42:44;100896.12;;;2.52;100.00
44988;BME280;35735;52.226;21.254;2023-02-16T08:47:45;100902.06;;;2.67;100.00
44988;BME280;35735;52.226;21.254;2023-02-16T08:52:45;100881.97;;;2.75;100.00
44988;BME280;35735;52.226;21.254;2023-02-16T08:57:46;100886.97;;;2.90;100.00
44988;BME280;35735;52.226;21.254;2023-02-16T09:02:46;100887.47;;;3.03;100.00
44988;BME280;35735;52.226;21.254;2023-02-16T09:07:47;100890.87;;;3.23;100.00
44988;BME280;35735;52.226;21.254;2023-02-16T09:12:48;100878.81;;;3.34;100.00
44988;BME280;35735;52.226;21.254;2023-02-16T09:17:48;100883.03;;;3.51;100.00
44988;BME280;35735;52.226;21.254;2023-02-16T09:22:49;100878.22;;;3.67;100.00
44988;BME280;35735;52.226;21.254;2023-02-16T09:27:49;100885.91;;;3.83;100.00
44988;BME280;35735;52.226;21.254;2023-02-16T09:32:50;100869.56;;;4.00;100.00
44988;BME280;35735;52.226;21.254;2023-02-16T09:37:50;100864.69;;;4.14;100.00
44988;BME280;35735;52.226;21.254;2023-02-16T09:48:04;100876.28;;;4.41;100.00
44988;BME280;35735;52.226;21.254;2023-02-16T09:53:07;100865.44;;;4.66;100.00
44988;BME280;35735;52.226;21.254;2023-02-16T09:58:48;100869.56;;;4.83;100.00
44988;BME280;35735;52.226;21.254;2023-02-16T10:04:23;100858.97;;;4.86;100.00
44988;BME280;35735;52.226;21.254;2023-02-16T10:09:32;100852.12;;;4.97;100.00
44988;BME280;35735;52.226;21.254;2023-02-16T10:19:46;100858.28;;;5.25;100.00
44988;BME280;35735;52.226;21.254;2023-02-16T10:24:58;100852.47;;;5.40;100.00
44988;BME280;35735;52.226;21.254;2023-02-16T10:30:01;100848.34;;;5.53;100.00
44988;BME280;35735;52.226;21.254;2023-02-16T10:35:10;100846.06;;;5.67;100.00
44988;BME280;35735;52.226;21.254;2023-02-16T10:40:29;100845.66;;;5.85;100.00
44988;BME280;35735;52.226;21.254;2023-02-16T10:45:45;100837.75;;;5.91;100.00
44988;BME280;35735;52.226;21.254;2023-02-16T11:01:47;100827.22;;;5.97;100.00
44988;BME280;35735;52.226;21.254;2023-02-16T11:07:06;100812.59;;;6.21;100.00
44988;BME280;35735;52.226;21.254;2023-02-16T11:12:22;100800.28;;;6.29;100.00
44988;BME280;35735;52.226;21.254;2023-02-16T11:17:30;100793.06;;;6.25;100.00
44988;BME280;35735;52.226;21.254;2023-02-16T11:22:38;100792.25;;;6.29;100.00
44988;BME280;35735;52.226;21.254;2023-02-16T11:27:49;100798.78;;;6.40;100.00
44988;BME280;35735;52.226;21.254;2023-02-16T11:32:59;100784.88;;;6.58;100.00
44988;BME280;35735;52.226;21.254;2023-02-16T11:38:00;100781.47;;;6.67;100.00
44988;BME280;35735;52.226;21.254;2023-02-16T11:43:01;100781.47;;;6.67;100.00
44988;BME280;35735;52.226;21.254;2023-02-16T11:48:12;100785.25;;;6.75;100.00
44988;BME280;35735;52.226;21.254;2023-02-16T11:53:22;100776.44;;;6.82;100.00
44988;BME280;35735;52.226;21.254;2023-02-16T11:58:26;100780.88;;;6.80;100.00
44988;BME280;35735;52.226;21.254;2023-02-16T12:14:45;100768.97;;;7.10;100.00
44988;BME280;35735;52.226;21.254;2023-02-16T12:26:02;100759.19;;;7.14;100.00
44988;BME280;35735;52.226;21.254;2023-02-16T12:31:28;100760.03;;;7.13;100.00
44988;BME280;35735;52.226;21.254;2023-02-16T12:37:02;100754.78;;;7.17;100.00
44988;BME280;35735;52.226;21.254;2023-02-16T12:47:30;100743.31;;;7.28;100.00
44988;BME280;35735;52.226;21.254;2023-02-16T12:52:53;100739.84;;;7.33;100.00
44988;BME280;35735;52.226;21.254;2023-02-16T12:58:01;100744.25;;;7.30;100.00
44988;BME280;35735;52.226;21.254;2023-02-16T13:08:47;100737.88;;;7.24;100.00
44988;BME280;35735;52.226;21.254;2023-02-16T13:13:57;100748.69;;;7.28;100.00
44988;BME280;35735;52.226;21.254;2023-02-16T13:19:00;100734.34;;;7.26;100.00
44988;BME280;35735;52.226;21.254;2023-02-16T13:35:11;100729.66;;;7.14;100.00
44988;BME280;35735;52.226;21.254;2023-02-16T13:40:36;100729.69;;;7.15;100.00
44988;BME280;35735;52.226;21.254;2023-02-16T13:45:50;100723.34;;;7.12;100.00
44988;BME280;35735;52.226;21.254;2023-02-16T13:51:02;100724.22;;;7.11;100.00
44988;BME280;35735;52.226;21.254;2023-02-16T13:56:21;100726.78;;;7.04;100.00
44988;BME280;35735;52.226;21.254;2023-02-16T14:06:34;100721.37;;;7.03;100.00
44988;BME280;35735;52.226;21.254;2023-02-16T14:16:51;100715.94;;;7.00;100.00
44988;BME280;35735;52.226;21.254;2023-02-16T14:21:52;100708.78;;;6.99;100.00
44988;BME280;35735;52.226;21.254;2023-02-16T14:32:21;100717.72;;;6.99;100.00
44988;BME280;35735;52.226;21.254;2023-02-16T14:37:37;100713.25;;;6.98;100.00
44988;BME280;35735;52.226;21.254;2023-02-16T14:42:53;100711.34;;;6.93;100.00
44988;BME280;35735;52.226;21.254;2023-02-16T14:48:19;100724.81;;;6.96;100.00
44988;BME280;35735;52.226;21.254;2023-02-16T14:53:57;100712.22;;;6.92;100.00
44988;BME280;35735;52.226;21.254;2023-02-16T15:04:48;100710.12;;;6.75;100.00
44988;BME280;35735;52.226;21.254;2023-02-16T15:09:53;100710.06;;;6.72;100.00
44988;BME280;35735;52.226;21.254;2023-02-16T15:14:58;100711.84;;;6.73;100.00
44988;BME280;35735;52.226;21.254;2023-02-16T15:25:37;100716.00;;;6.57;100.00
44988;BME280;35735;52.226;21.254;2023-02-16T15:30:40;100711.44;;;6.53;100.00
44988;BME280;35735;52.226;21.254;2023-02-16T15:35:51;100714.94;;;6.49;100.00
44988;BME280;35735;52.226;21.254;2023-02-16T15:40:54;100717.41;;;6.40;100.00
44988;BME280;35735;52.226;21.254;2023-02-16T15:45:59;100712.03;;;6.38;100.00
44988;BME280;35735;52.226;21.254;2023-02-16T15:51:14;100719.09;;;6.35;100.00
44988;BME280;35735;52.226;21.254;2023-02-16T15:56:29;100704.66;;;6.29;100.00
44988;BME280;35735;52.226;21.254;2023-02-16T16:01:38;100699.28;;;6.28;100.00
44988;BME280;35735;52.226;21.254;2023-02-16T16:06:39;100694.72;;;6.24;100.00
44988;BME280;35735;52.226;21.254;2023-02-16T16:11:39;100699.38;;;6.33;100.00
44988;BME280;35735;52.226;21.254;2023-02-16T16:16:42;100693.06;;;6.29;100.00
44988;BME280;35735;52.226;21.254;2023-02-16T16:21:52;100696.56;;;6.25;100.00
44988;BME280;35735;52.226;21.254;2023-02-16T16:26:55;100698.00;;;6.10;100.00
44988;BME280;35735;52.226;21.254;2023-02-16T16:31:57;100695.81;;;5.94;100.00
44988;BME280;35735;52.226;21.254;2023-02-16T16:36:58;100699.06;;;5.81;100.00
44988;BME280;35735;52.226;21.254;2023-02-16T16:52:29;100686.94;;;5.59;100.00
44988;BME280;35735;52.226;21.254;2023-02-16T16:57:37;100687.84;;;5.59;100.00
44988;BME280;35735;52.226;21.254;2023-02-16T17:02:38;100678.94;;;5.60;100.00
44988;BME280;35735;52.226;21.254;2023-02-16T17:07:38;100678.06;;;5.61;100.00
44988;BME280;35735;52.226;21.254;2023-02-16T17:12:39;100682.50;;;5.59;100.00
44988;BME280;35735;52.226;21.254;2023-02-16T17:17:39;100676.06;;;5.52;100.00
44988;BME280;35735;52.226;21.254;2023-02-16T17:22:40;100673.31;;;5.49;100.00
44988;BME280;35735;52.226;21.254;2023-02-16T17:27:40;100667.87;;;5.45;100.00
44988;BME280;35735;52.226;21.254;2023-02-16T17:32:41;100685.50;;;5.36;100.00
44988;BME280;35735;52.226;21.254;2023-02-16T17:37:42;100683.53;;;5.29;100.00
44988;BME280;35735;52.226;21.254;2023-02-16T17:42:42;100682.53;;;5.26;100.00
44988;BME280;35735;52.226;21.254;2023-02-16T17:47:44;100674.47;;;5.24;100.00
44988;BME280;35735;52.226;21.254;2023-02-16T17:52:45;100675.31;;;5.22;100.00
44988;BME280;35735;52.226;21.254;2023-02-16T17:57:45;100677.81;;;5.15;100.00
44988;BME280;35735;52.226;21.254;2023-02-16T18:02:46;100673.19;;;5.08;100.00
44988;BME280;35735;52.226;21.254;2023-02-16T18:07:46;100677.69;;;5.11;100.00
44988;BME280;35735;52.226;21.254;2023-02-16T18:12:47;100675.09;;;5.14;100.00
44988;BME280;35735;52.226;21.254;2023-02-16T18:17:47;100673.31;;;5.14;100.00
44988;BME280;35735;52.226;21.254;2023-02-16T18:22:48;100672.34;;;5.11;100.00
44988;BME280;35735;52.226;21.254;2023-02-16T18:27:49;100684.75;;;5.07;100.00
44988;BME280;35735;52.226;21.254;2023-02-16T18:32:49;100668.50;;;4.99;100.00
44988;BME280;35735;52.226;21.254;2023-02-16T18:37:50;100670.94;;;4.90;100.00
44988;BME280;35735;52.226;21.254;2023-02-16T18:42:50;100668.75;;;4.75;100.00
44988;BME280;35735;52.226;21.254;2023-02-16T18:47:51;100665.78;;;4.64;100.00
44988;BME280;35735;52.226;21.254;2023-02-16T18:52:51;100667.47;;;4.62;100.00
44988;BME280;35735;52.226;21.254;2023-02-16T18:57:52;100670.16;;;4.62;100.00
44988;BME280;35735;52.226;21.254;2023-02-16T19:02:53;100674.50;;;4.59;100.00
44988;BME280;35735;52.226;21.254;2023-02-16T19:07:53;100671.75;;;4.56;100.00
44988;BME280;35735;52.226;21.254;2023-02-16T19:12:54;100676.09;;;4.52;100.00
44988;BME280;35735;52.226;21.254;2023-02-16T19:17:54;100675.88;;;4.43;100.00
44988;BME280;35735;52.226;21.254;2023-02-16T19:22:55;100668.44;;;4.33;100.00
44988;BME280;35735;52.226;21.254;2023-02-16T19:27:56;100679.00;;;4.28;100.00
44988;BME280;35735;52.226;21.254;2023-02-16T19:32:56;100674.16;;;4.15;100.00
44988;BME280;35735;52.226;21.254;2023-02-16T19:37:57;100671.19;;;4.05;100.00
44988;BME280;35735;52.226;21.254;2023-02-16T19:42:57;100665.00;;;4.06;100.00
44988;BME280;35735;52.226;21.254;2023-02-16T19:47:58;100660.34;;;4.01;100.00
44988;BME280;35735;52.226;21.254;2023-02-16T19:52:58;100656.63;;;3.96;100.00
44988;BME280;35735;52.226;21.254;2023-02-16T19:57:59;100658.50;;;3.98;100.00
44988;BME280;35735;52.226;21.254;2023-02-16T20:02:59;100655.88;;;4.00;100.00
44988;BME280;35735;52.226;21.254;2023-02-16T20:08:00;100651.59;;;4.05;100.00
44988;BME280;35735;52.226;21.254;2023-02-16T20:13:01;100648.22;;;4.12;100.00
44988;BME280;35735;52.226;21.254;2023-02-16T20:18:02;100653.56;;;4.12;100.00
44988;BME280;35735;52.226;21.254;2023-02-16T20:23:02;100655.50;;;4.16;100.00
44988;BME280;35735;52.226;21.254;2023-02-16T20:28:03;100652.03;;;4.20;100.00
44988;BME280;35735;52.226;21.254;2023-02-16T20:33:04;100662.62;;;4.17;100.00
44988;BME280;35735;52.226;21.254;2023-02-16T20:38:04;100660.94;;;4.19;100.00
44988;BME280;35735;52.226;21.254;2023-02-16T20:43:05;100654.84;;;4.25;100.00
44988;BME280;35735;52.226;21.254;2023-02-16T20:48:07;100658.38;;;4.24;100.00
44988;BME280;35735;52.226;21.254;2023-02-16T20:53:08;100661.00;;;4.22;100.00
44988;BME280;35735;52.226;21.254;2023-02-16T20:58:08;100661.91;;;4.23;100.00
44988;BME280;35735;52.226;21.254;2023-02-16T21:03:09;100655.25;;;4.08;100.00
44988;BME280;35735;52.226;21.254;2023-02-16T21:08:10;100658.56;;;4.00;100.00
44988;BME280;35735;52.226;21.254;2023-02-16T21:13:10;100661.06;;;3.95;100.00
44988;BME280;35735;52.226;21.254;2023-02-16T21:18:11;100649.31;;;3.88;100.00
44988;BME280;35735;52.226;21.254;2023-02-16T21:23:12;100650.16;;;3.87;100.00
44988;BME280;35735;52.226;21.254;2023-02-16T21:28:12;100642.97;;;3.85;100.00
44988;BME280;35735;52.226;21.254;2023-02-16T21:33:13;100641.13;;;3.84;100.00
44988;BME280;35735;52.226;21.254;2023-02-16T21:38:13;100635.84;;;3.85;100.00
44988;BME280;35735;52.226;21.254;2023-02-16T21:43:14;100635.00;;;3.86;100.00
44988;BME280;35735;52.226;21.254;2023-02-16T21:48:14;100638.41;;;3.82;100.00
44988;BME280;35735;52.226;21.254;2023-02-16T21:53:15;100631.28;;;3.81;100.00
44988;BME280;35735;52.226;21.254;2023-02-16T21:58:16;100633.19;;;3.85;100.00
44988;BME280;35735;52.226;21.254;2023-02-16T22:03:17;100628.75;;;3.86;100.00
44988;BME280;35735;52.226;21.254;2023-02-16T22:08:18;100632.22;;;3.83;100.00
44988;BME280;35735;52.226;21.254;2023-02-16T22:13:19;100628.94;;;3.92;100.00
44988;BME280;35735;52.226;21.254;2023-02-16T22:18:19;100626.50;;;4.00;100.00
44988;BME280;35735;52.226;21.254;2023-02-16T22:23:20;100628.56;;;4.10;100.00
44988;BME280;35735;52.226;21.254;2023-02-16T22:28:20;100628.88;;;4.19;100.00
44988;BME280;35735;52.226;21.254;2023-02-16T22:33:21;100626.22;;;4.21;100.00
44988;BME280;35735;52.226;21.254;2023-02-16T22:38:22;100633.28;;;4.19;100.00
44988;BME280;35735;52.226;21.254;2023-02-16T22:43:22;100635.81;;;4.14;100.00
44988;BME280;35735;52.226;21.254;2023-02-16T22:48:23;100639.22;;;4.08;100.00
44988;BME280;35735;52.226;21.254;2023-02-16T22:53:23;100635.56;;;4.05;100.00
44988;BME280;35735;52.226;21.254;2023-02-16T22:58:24;100638.19;;;4.03;100.00
44988;BME280;35735;52.226;21.254;2023-02-16T23:03:24;100631.94;;;4.03;100.00
44988;BME280;35735;52.226;21.254;2023-02-16T23:08:25;100622.09;;;4.02;100.00
44988;BME280;35735;52.226;21.254;2023-02-16T23:13:28;100620.44;;;4.05;100.00
44988;BME280;35735;52.226;21.254;2023-02-16T23:18:29;100623.78;;;3.98;100.00
44988;BME280;35735;52.226;21.254;2023-02-16T23:23:30;100617.59;;;4.01;100.00
44988;BME280;35735;52.226;21.254;2023-02-16T23:28:30;100613.19;;;4.01;100.00
44988;BME280;35735;52.226;21.254;2023-02-16T23:33:31;100629.38;;;4.07;100.00
44988;BME280;35735;52.226;21.254;2023-02-16T23:38:32;100625.97;;;4.12;100.00
44988;BME280;35735;52.226;21.254;2023-02-16T23:43:33;100625.06;;;4.11;100.00
44988;BME280;35735;52.226;21.254;2023-02-16T23:48:34;100615.47;;;4.18;100.00
44988;BME280;35735;52.226;21.254;2023-02-16T23:53:35;100615.59;;;4.24;100.00
44988;BME280;35735;52.226;21.254;2023-02-16T23:58:37;100623.81;;;4.30;100.00
